createdAt,value
2018-03-31T00:00:58.475Z,7.93
2018-03-31T00:03:26.928Z,7.88
2018-03-31T00:05:55.715Z,7.82
2018-03-31T00:08:24.505Z,7.76
2018-03-31T00:10:52.782Z,7.69
2018-03-31T00:13:21.871Z,7.66
2018-03-31T00:15:51.408Z,7.64
2018-03-31T00:18:22.109Z,7.63
2018-03-31T00:20:52.125Z,7.61
2018-03-31T00:23:21.229Z,7.60
2018-03-31T00:25:50.609Z,7.61
2018-03-31T00:28:20.084Z,7.57
2018-03-31T00:30:48.533Z,7.56
2018-03-31T00:33:17.866Z,7.57
2018-03-31T00:35:47.068Z,7.50
2018-03-31T00:38:15.598Z,7.51
2018-03-31T00:40:43.982Z,7.43
2018-03-31T00:45:51.811Z,7.47
2018-03-31T00:48:21.220Z,7.43
2018-03-31T00:50:49.683Z,7.34
2018-03-31T00:53:18.264Z,7.23
2018-03-31T00:55:46.604Z,7.20
2018-03-31T00:58:15.458Z,7.16
2018-03-31T01:00:48.115Z,7.20
2018-03-31T01:03:16.699Z,7.25
2018-03-31T01:05:45.026Z,7.29
2018-03-31T01:08:14.566Z,7.30
2018-03-31T01:10:42.962Z,7.30
2018-03-31T01:13:11.468Z,7.20
2018-03-31T01:15:41.669Z,7.20
2018-03-31T01:18:09.960Z,7.24
2018-03-31T01:20:39.055Z,7.21
2018-03-31T01:23:09.382Z,7.19
2018-03-31T01:25:37.852Z,7.15
2018-03-31T01:28:06.995Z,7.14
2018-03-31T01:30:35.662Z,7.16
2018-03-31T01:33:04.781Z,7.17
2018-03-31T01:35:33.215Z,7.07
2018-03-31T01:38:01.696Z,7.00
2018-03-31T01:40:30.216Z,6.95
2018-03-31T01:42:58.756Z,6.95
2018-03-31T01:45:28.775Z,6.99
2018-03-31T01:47:58.147Z,6.98
2018-03-31T01:50:26.557Z,7.04
2018-03-31T01:52:56.232Z,7.09
2018-03-31T01:55:25.356Z,7.10
2018-03-31T01:57:54.464Z,7.13
2018-03-31T02:00:25.733Z,7.11
2018-03-31T02:02:54.496Z,7.08
2018-03-31T02:05:23.116Z,7.05
2018-03-31T02:07:58.482Z,7.07
2018-03-31T02:10:26.908Z,7.09
2018-03-31T02:12:55.391Z,7.09
2018-03-31T02:15:24.524Z,7.19
2018-03-31T02:17:53.269Z,7.21
2018-03-31T02:20:22.505Z,7.20
2018-03-31T02:22:51.759Z,7.17
2018-03-31T02:25:20.254Z,7.14
2018-03-31T02:27:48.639Z,7.06
2018-03-31T02:30:17.080Z,7.11
2018-03-31T02:32:45.492Z,7.15
2018-03-31T02:35:13.874Z,7.07
2018-03-31T02:37:42.462Z,6.92
2018-03-31T02:40:10.913Z,6.93
2018-03-31T02:42:39.309Z,6.92
2018-03-31T02:45:08.864Z,6.96
2018-03-31T02:47:37.308Z,7.03
2018-03-31T02:50:05.630Z,6.89
2018-03-31T02:52:36.564Z,6.88
2018-03-31T02:55:04.807Z,6.93
2018-03-31T02:57:33.520Z,6.92
2018-03-31T03:02:40.207Z,7.04
2018-03-31T03:05:08.500Z,7.07
2018-03-31T03:07:38.111Z,7.11
2018-03-31T03:10:06.469Z,7.13
2018-03-31T03:12:34.815Z,7.20
2018-03-31T03:15:05.032Z,7.25
2018-03-31T03:17:33.113Z,7.20
2018-03-31T03:20:01.985Z,7.24
2018-03-31T03:22:30.285Z,7.28
2018-03-31T03:24:58.364Z,7.35
2018-03-31T03:27:26.434Z,7.41
2018-03-31T03:29:56.596Z,7.44
2018-03-31T03:32:24.827Z,7.54
2018-03-31T03:34:53.004Z,7.69
2018-03-31T03:37:21.176Z,7.84
2018-03-31T03:39:49.463Z,8.03
2018-03-31T03:42:17.731Z,8.19
2018-03-31T03:44:47.543Z,8.32
2018-03-31T03:47:15.820Z,8.39
2018-03-31T03:49:44.096Z,8.38
2018-03-31T03:52:12.174Z,8.36
2018-03-31T03:54:40.544Z,8.32
2018-03-31T03:57:08.600Z,8.28
2018-03-31T03:59:38.709Z,8.26
2018-03-31T04:02:06.712Z,8.26
2018-03-31T04:04:35.608Z,8.32
2018-03-31T04:07:06.961Z,8.34
2018-03-31T04:09:35.227Z,8.33
2018-03-31T04:12:03.196Z,8.36
2018-03-31T04:14:31.381Z,8.42
2018-03-31T04:16:59.399Z,8.50
2018-03-31T04:19:27.756Z,8.59
2018-03-31T04:21:56.205Z,8.65
2018-03-31T04:24:25.171Z,8.75
2018-03-31T04:26:53.511Z,8.86
2018-03-31T04:29:21.804Z,8.98
2018-03-31T04:31:50.133Z,9.11
2018-03-31T04:34:18.307Z,9.21
2018-03-31T04:36:49.147Z,9.34
2018-03-31T04:39:17.414Z,9.45
2018-03-31T04:41:45.502Z,9.58
2018-03-31T04:44:15.509Z,9.71
2018-03-31T04:46:43.890Z,9.83
2018-03-31T04:49:12.596Z,10.07
2018-03-31T04:51:40.787Z,10.29
2018-03-31T04:54:09.041Z,10.52
2018-03-31T04:56:37.838Z,10.64
2018-03-31T04:59:08.595Z,10.78
2018-03-31T05:01:36.951Z,10.95
2018-03-31T05:04:05.252Z,11.06
2018-03-31T05:06:34.691Z,11.22
2018-03-31T05:09:04.813Z,11.42
2018-03-31T05:11:33.961Z,11.58
2018-03-31T05:14:04.970Z,11.68
2018-03-31T05:16:33.148Z,11.94
2018-03-31T05:19:01.321Z,12.14
2018-03-31T05:21:29.422Z,12.30
2018-03-31T05:23:57.464Z,12.40
2018-03-31T05:26:25.588Z,12.45
2018-03-31T05:28:54.878Z,12.55
2018-03-31T05:31:23.337Z,12.54
2018-03-31T05:33:53.959Z,12.60
2018-03-31T05:36:24.320Z,12.82
2018-03-31T05:38:52.602Z,13.07
2018-03-31T05:41:20.586Z,13.38
2018-03-31T05:43:48.909Z,13.76
2018-03-31T05:46:17.018Z,14.19
2018-03-31T05:48:46.182Z,14.49
2018-03-31T05:51:14.460Z,14.65
2018-03-31T05:53:43.253Z,14.69
2018-03-31T05:56:16.670Z,14.67
2018-03-31T05:58:48.055Z,14.44
2018-03-31T06:01:17.904Z,14.41
2018-03-31T06:03:47.212Z,14.40
2018-03-31T06:06:19.589Z,14.20
2018-03-31T06:08:47.660Z,13.95
2018-03-31T06:11:16.837Z,13.80
2018-03-31T06:13:45.341Z,13.67
2018-03-31T06:16:13.306Z,13.58
2018-03-31T06:18:41.383Z,13.50
2018-03-31T06:21:12.124Z,13.27
2018-03-31T06:23:40.288Z,13.13
2018-03-31T06:26:09.289Z,13.10
2018-03-31T06:28:37.469Z,13.30
2018-03-31T06:31:05.594Z,13.18
2018-03-31T06:33:33.834Z,13.46
2018-03-31T06:36:03.678Z,13.79
2018-03-31T06:38:31.796Z,13.92
2018-03-31T06:40:59.888Z,14.40
2018-03-31T06:46:01.763Z,14.97
2018-03-31T06:48:29.925Z,15.22
2018-03-31T06:50:58.848Z,15.18
2018-03-31T06:53:26.991Z,15.52
2018-03-31T06:55:55.880Z,15.75
2018-03-31T06:58:24.977Z,15.99
2018-03-31T07:00:53.048Z,16.47
2018-03-31T07:03:21.433Z,16.79
2018-03-31T07:05:49.748Z,16.44
2018-03-31T07:08:17.872Z,15.71
2018-03-31T07:10:46.046Z,15.52
2018-03-31T07:13:16.244Z,15.44
2018-03-31T07:15:45.215Z,15.17
2018-03-31T07:18:13.237Z,15.16
2018-03-31T07:20:42.270Z,14.82
2018-03-31T07:23:10.244Z,14.61
2018-03-31T07:25:38.278Z,14.90
2018-03-31T07:28:08.905Z,15.01
2018-03-31T07:30:37.036Z,15.23
2018-03-31T07:33:05.273Z,15.32
2018-03-31T07:38:07.146Z,15.39
2018-03-31T07:40:36.335Z,15.26
2018-03-31T07:43:05.589Z,15.15
2018-03-31T07:45:33.717Z,15.06
2018-03-31T07:48:01.734Z,14.98
2018-03-31T07:50:31.703Z,14.89
2018-03-31T07:52:59.856Z,14.86
2018-03-31T07:55:27.945Z,14.52
2018-03-31T07:57:58.994Z,14.35
2018-03-31T08:00:28.188Z,14.13
2018-03-31T08:02:56.159Z,14.47
2018-03-31T08:05:26.369Z,14.27
2018-03-31T08:07:54.757Z,14.50
2018-03-31T08:10:23.268Z,14.70
2018-03-31T08:15:25.023Z,14.14
2018-03-31T08:17:53.601Z,14.09
2018-03-31T08:20:22.747Z,14.34
2018-03-31T08:22:51.513Z,14.24
2018-03-31T08:25:20.521Z,14.16
2018-03-31T08:27:49.403Z,14.17
2018-03-31T08:30:18.413Z,13.92
2018-03-31T08:32:46.442Z,13.76
2018-03-31T08:37:48.379Z,13.73
2018-03-31T08:40:16.387Z,13.57
2018-03-31T08:42:45.322Z,13.30
2018-03-31T08:45:13.477Z,13.49
2018-03-31T08:47:41.637Z,13.56
2018-03-31T08:50:11.908Z,13.60
2018-03-31T08:52:40.750Z,13.49
2018-03-31T08:55:09.024Z,13.53
2018-03-31T08:57:37.302Z,13.38
2018-03-31T09:00:05.465Z,13.55
2018-03-31T09:02:33.795Z,13.82
2018-03-31T09:05:02.759Z,13.80
2018-03-31T09:07:39.770Z,13.81
2018-03-31T09:10:09.587Z,13.71
2018-03-31T09:12:37.631Z,13.71
2018-03-31T09:15:05.804Z,13.74
2018-03-31T09:17:34.652Z,13.76
2018-03-31T09:20:02.837Z,13.83
2018-03-31T09:22:31.137Z,13.84
2018-03-31T09:24:59.314Z,13.76
2018-03-31T09:27:28.201Z,13.70
2018-03-31T09:29:56.308Z,13.74
2018-03-31T09:32:24.558Z,13.26
2018-03-31T09:34:52.762Z,13.12
2018-03-31T09:37:20.828Z,13.30
2018-03-31T09:39:48.871Z,13.23
2018-03-31T09:42:16.981Z,13.06
2018-03-31T09:44:44.988Z,13.08
2018-03-31T09:47:13.046Z,13.10
2018-03-31T09:49:42.079Z,13.28
2018-03-31T09:52:10.257Z,13.41
2018-03-31T09:54:38.329Z,13.30
2018-03-31T09:57:06.406Z,12.97
2018-03-31T09:59:34.475Z,12.97
2018-03-31T10:02:03.365Z,13.03
2018-03-31T10:04:31.535Z,13.12
2018-03-31T10:07:00.097Z,13.16
2018-03-31T10:09:28.600Z,13.30
2018-03-31T10:11:56.564Z,13.51
2018-03-31T10:14:24.590Z,13.59
2018-03-31T10:16:52.944Z,13.39
2018-03-31T10:19:21.102Z,13.49
2018-03-31T10:21:49.074Z,13.67
2018-03-31T10:24:19.030Z,13.17
2018-03-31T10:26:47.062Z,13.24
2018-03-31T10:29:15.146Z,13.16
2018-03-31T10:31:43.816Z,13.00
2018-03-31T10:34:11.723Z,12.93
2018-03-31T10:36:39.653Z,13.02
2018-03-31T10:39:09.673Z,13.14
2018-03-31T10:41:38.570Z,13.27
2018-03-31T10:44:07.253Z,13.43
2018-03-31T10:46:35.322Z,13.67
2018-03-31T10:49:03.447Z,13.66
2018-03-31T10:51:31.667Z,13.98
2018-03-31T10:54:04.763Z,14.06
2018-03-31T10:56:32.689Z,13.96
2018-03-31T10:59:01.726Z,13.94
2018-03-31T11:01:31.642Z,13.97
2018-03-31T11:03:59.877Z,14.06
2018-03-31T11:06:30.038Z,14.13
2018-03-31T11:09:04.454Z,14.28
2018-03-31T11:11:32.477Z,14.32
2018-03-31T11:14:00.440Z,14.38
2018-03-31T11:16:29.600Z,14.56
2018-03-31T11:18:57.639Z,14.88
2018-03-31T11:21:25.636Z,14.79
2018-03-31T11:23:54.710Z,14.76
2018-03-31T11:26:23.225Z,14.66
2018-03-31T11:28:51.185Z,14.32
2018-03-31T11:31:22.120Z,14.37
2018-03-31T11:33:50.217Z,13.97
2018-03-31T11:36:20.526Z,13.91
2018-03-31T11:38:50.304Z,14.10
2018-03-31T11:41:19.540Z,14.25
2018-03-31T11:43:47.577Z,14.24
2018-03-31T11:46:16.299Z,14.13
2018-03-31T11:48:44.420Z,14.18
2018-03-31T11:51:14.222Z,14.21
2018-03-31T11:53:42.361Z,14.12
2018-03-31T11:56:11.650Z,14.26
2018-03-31T11:58:39.732Z,14.21
2018-03-31T12:01:08.829Z,14.38
2018-03-31T12:03:38.232Z,14.72
2018-03-31T12:06:06.348Z,14.81
2018-03-31T12:08:36.174Z,14.66
2018-03-31T12:11:05.009Z,14.66
2018-03-31T12:13:34.039Z,14.62
2018-03-31T12:16:02.852Z,14.44
2018-03-31T12:18:31.052Z,14.49
2018-03-31T12:21:10.611Z,14.26
2018-03-31T12:23:38.517Z,14.17
2018-03-31T12:26:06.517Z,14.11
2018-03-31T12:28:34.712Z,14.16
2018-03-31T12:31:03.310Z,14.39
2018-03-31T12:33:31.416Z,14.22
2018-03-31T12:36:01.301Z,13.98
2018-03-31T12:38:29.482Z,13.96
2018-03-31T12:40:57.546Z,13.90
2018-03-31T12:43:25.606Z,13.90
2018-03-31T12:45:54.100Z,14.05
2018-03-31T12:48:22.376Z,14.17
2018-03-31T12:50:53.211Z,14.26
2018-03-31T12:53:22.236Z,14.44
2018-03-31T12:55:51.310Z,14.61
2018-03-31T12:58:20.349Z,14.47
2018-03-31T13:00:48.195Z,14.21
2018-03-31T13:03:16.240Z,14.12
2018-03-31T13:05:45.060Z,14.15
2018-03-31T13:08:14.923Z,14.03
2018-03-31T13:10:45.706Z,13.92
2018-03-31T13:13:13.879Z,13.97
2018-03-31T13:15:41.915Z,14.08
2018-03-31T13:18:10.896Z,14.27
2018-03-31T13:20:38.999Z,14.41
2018-03-31T13:23:06.964Z,14.50
2018-03-31T13:25:35.090Z,14.51
2018-03-31T13:28:03.212Z,14.58
2018-03-31T13:30:31.173Z,14.58
2018-03-31T13:32:59.397Z,14.50
2018-03-31T13:35:28.750Z,14.54
2018-03-31T13:37:56.938Z,14.56
2018-03-31T13:40:28.437Z,14.63
2018-03-31T13:42:57.466Z,14.67
2018-03-31T13:45:25.832Z,14.60
2018-03-31T13:47:55.697Z,14.22
2018-03-31T13:50:23.746Z,14.36
2018-03-31T13:52:52.627Z,14.45
2018-03-31T13:55:21.631Z,14.40
2018-03-31T13:57:49.708Z,14.15
2018-03-31T14:00:17.852Z,14.10
2018-03-31T14:02:45.951Z,14.21
2018-03-31T14:05:13.911Z,14.12
2018-03-31T14:07:42.000Z,14.16
2018-03-31T14:10:10.983Z,14.27
2018-03-31T14:12:39.984Z,14.18
2018-03-31T14:15:09.792Z,14.16
2018-03-31T14:20:10.851Z,14.09
2018-03-31T14:22:39.030Z,14.01
2018-03-31T14:27:40.407Z,13.97
2018-03-31T14:30:10.891Z,13.91
2018-03-31T14:32:39.923Z,13.85
2018-03-31T14:35:07.879Z,13.81
2018-03-31T14:37:36.085Z,13.79
2018-03-31T14:40:04.154Z,13.90
2018-03-31T14:42:33.232Z,13.72
2018-03-31T14:45:02.125Z,13.70
2018-03-31T14:47:30.160Z,13.77
2018-03-31T14:49:59.438Z,13.86
2018-03-31T14:52:27.508Z,13.92
2018-03-31T14:54:55.629Z,13.90
2018-03-31T14:57:23.823Z,13.90
2018-03-31T14:59:51.830Z,13.80
2018-03-31T15:02:19.981Z,13.63
2018-03-31T15:04:50.920Z,13.59
2018-03-31T15:07:20.145Z,13.47
2018-03-31T15:09:48.174Z,13.35
2018-03-31T15:12:17.320Z,13.39
2018-03-31T15:14:45.491Z,13.30
2018-03-31T15:17:14.492Z,13.34
2018-03-31T15:19:42.714Z,13.39
2018-03-31T15:22:11.601Z,13.31
2018-03-31T15:24:40.602Z,13.25
2018-03-31T15:27:10.099Z,13.32
2018-03-31T15:29:38.177Z,13.36
2018-03-31T15:32:06.556Z,13.41
2018-03-31T15:34:38.216Z,13.47
2018-03-31T15:37:06.290Z,13.42
2018-03-31T15:39:35.385Z,13.31
2018-03-31T15:42:03.567Z,13.08
2018-03-31T15:44:31.732Z,12.99
2018-03-31T15:46:59.706Z,12.95
2018-03-31T15:49:27.795Z,12.68
2018-03-31T15:51:55.770Z,12.64
2018-03-31T15:54:23.615Z,12.47
2018-03-31T15:56:51.696Z,12.30
2018-03-31T15:59:19.584Z,12.38
2018-03-31T16:01:47.552Z,12.37
2018-03-31T16:04:15.530Z,12.20
2018-03-31T16:06:43.439Z,12.16
2018-03-31T16:09:11.309Z,12.22
2018-03-31T16:11:44.077Z,12.34
2018-03-31T16:14:12.019Z,12.42
2018-03-31T16:16:39.919Z,12.39
2018-03-31T16:19:07.860Z,12.22
2018-03-31T16:21:35.778Z,12.13
2018-03-31T16:24:03.684Z,12.07
2018-03-31T16:26:31.617Z,11.90
2018-03-31T16:28:59.530Z,11.68
2018-03-31T16:31:27.392Z,11.58
2018-03-31T16:33:55.438Z,11.64
2018-03-31T16:36:23.332Z,11.74
2018-03-31T16:38:51.274Z,11.83
2018-03-31T16:41:20.026Z,11.92
2018-03-31T16:43:47.907Z,11.91
2018-03-31T16:46:15.752Z,11.98
2018-03-31T16:48:43.741Z,12.07
2018-03-31T16:51:11.747Z,12.11
2018-03-31T16:53:39.628Z,12.14
2018-03-31T16:56:07.570Z,12.13
2018-03-31T16:58:35.506Z,12.13
2018-03-31T17:01:03.365Z,12.08
2018-03-31T17:03:33.033Z,12.11
2018-03-31T17:06:00.892Z,12.17
2018-03-31T17:08:28.860Z,12.22
2018-03-31T17:10:56.825Z,12.27
2018-03-31T17:13:24.781Z,12.34
2018-03-31T17:15:52.739Z,12.34
2018-03-31T17:18:20.644Z,12.37
2018-03-31T17:20:48.519Z,12.41
2018-03-31T17:26:48.104Z,12.43
2018-03-31T17:29:16.104Z,12.49
2018-03-31T17:31:44.064Z,12.49
2018-03-31T17:34:12.001Z,12.50
2018-03-31T17:36:40.022Z,12.49
2018-03-31T17:39:07.969Z,12.56
2018-03-31T17:41:35.878Z,12.63
2018-03-31T17:44:03.867Z,12.65
2018-03-31T17:46:31.755Z,12.64
2018-03-31T17:48:59.682Z,12.54
2018-03-31T17:51:27.568Z,12.53
2018-03-31T17:53:55.463Z,12.46
2018-03-31T17:56:24.051Z,12.40
2018-03-31T17:58:51.906Z,12.45
2018-03-31T18:01:19.923Z,12.38
2018-03-31T18:03:49.421Z,12.44
2018-03-31T18:06:17.312Z,12.40
2018-03-31T18:08:45.233Z,12.22
2018-03-31T18:11:13.970Z,12.20
2018-03-31T18:13:43.573Z,12.29
2018-03-31T18:16:11.567Z,12.37
2018-03-31T18:18:45.797Z,12.41
2018-03-31T18:21:13.720Z,12.40
2018-03-31T18:23:41.612Z,12.41
2018-03-31T18:28:42.952Z,12.39
2018-03-31T18:31:10.893Z,12.35
2018-03-31T18:33:38.784Z,12.27
2018-03-31T18:36:09.500Z,12.28
2018-03-31T18:38:37.379Z,12.29
2018-03-31T18:41:05.270Z,12.30
2018-03-31T18:43:34.106Z,12.28
2018-03-31T18:46:01.968Z,12.27
2018-03-31T18:48:29.903Z,12.22
2018-03-31T18:50:58.625Z,12.19
2018-03-31T18:53:26.539Z,12.15
2018-03-31T18:55:54.427Z,12.10
2018-03-31T19:00:55.150Z,11.97
2018-03-31T19:03:23.141Z,11.91
2018-03-31T19:05:51.060Z,11.82
2018-03-31T19:08:19.073Z,11.73
2018-03-31T19:10:47.175Z,11.63
2018-03-31T19:13:15.610Z,11.54
2018-03-31T19:15:43.677Z,11.44
2018-03-31T19:18:11.667Z,11.39
2018-03-31T19:23:13.959Z,11.45
2018-03-31T19:25:42.856Z,11.50
2018-03-31T19:28:11.988Z,11.47
2018-03-31T19:30:46.576Z,11.45
2018-03-31T19:33:19.250Z,11.42
2018-03-31T19:35:52.957Z,11.43
2018-03-31T19:38:21.953Z,11.44
2018-03-31T19:40:50.332Z,11.43
2018-03-31T19:43:18.417Z,11.40
2018-03-31T19:45:47.392Z,11.32
2018-03-31T19:48:15.526Z,11.33
2018-03-31T19:50:43.645Z,11.35
2018-03-31T19:53:11.869Z,11.36
2018-03-31T19:55:39.730Z,11.31
2018-03-31T19:58:08.591Z,11.27
2018-03-31T20:00:36.524Z,11.23
2018-03-31T20:03:04.476Z,11.12
2018-03-31T20:05:32.648Z,11.01
2018-03-31T20:08:02.436Z,10.94
2018-03-31T20:10:30.367Z,10.93
2018-03-31T20:12:58.251Z,10.93
2018-03-31T20:15:26.200Z,10.88
2018-03-31T20:17:54.095Z,10.91
2018-03-31T20:20:21.979Z,10.90
2018-03-31T20:22:50.708Z,10.95
2018-03-31T20:25:18.559Z,10.99
2018-03-31T20:27:46.404Z,11.07
2018-03-31T20:30:14.369Z,11.14
2018-03-31T20:32:42.279Z,11.20
2018-03-31T20:35:10.331Z,11.25
2018-03-31T20:37:40.688Z,11.21
2018-03-31T20:40:08.608Z,11.16
2018-03-31T20:42:36.479Z,11.16
2018-03-31T20:45:06.979Z,11.17
2018-03-31T20:47:34.864Z,11.13
2018-03-31T20:50:02.766Z,11.14
2018-03-31T20:52:30.673Z,11.15
2018-03-31T20:54:58.611Z,11.10
2018-03-31T20:57:26.521Z,11.13
2018-03-31T20:59:55.487Z,11.10
2018-03-31T21:02:23.477Z,11.09
2018-03-31T21:04:51.596Z,11.11
2018-03-31T21:07:23.410Z,11.09
2018-03-31T21:09:52.696Z,11.02
2018-03-31T21:12:20.837Z,10.96
2018-03-31T21:14:48.957Z,10.86
2018-03-31T21:17:17.236Z,10.83
2018-03-31T21:19:45.428Z,10.80
2018-03-31T21:22:16.149Z,10.73
2018-03-31T21:24:44.160Z,10.73
2018-03-31T21:27:13.766Z,10.66
2018-03-31T21:29:42.746Z,10.58
2018-03-31T21:32:10.881Z,10.54
2018-03-31T21:34:38.965Z,10.44
2018-03-31T21:39:40.343Z,10.44
2018-03-31T21:42:09.329Z,10.43
2018-03-31T21:44:38.291Z,10.51
2018-03-31T21:47:06.229Z,10.67
2018-03-31T21:49:34.769Z,10.77
2018-03-31T21:52:04.209Z,10.84
2018-03-31T21:54:32.360Z,10.85
2018-03-31T21:57:00.570Z,10.85
2018-03-31T22:02:08.245Z,10.89
2018-03-31T22:04:36.226Z,10.90
2018-03-31T22:07:04.164Z,10.87
2018-03-31T22:09:32.150Z,10.88
2018-03-31T22:12:00.057Z,10.91
2018-03-31T22:14:33.421Z,10.85
2018-03-31T22:17:01.310Z,10.89
2018-03-31T22:19:29.270Z,10.92
2018-03-31T22:21:57.199Z,10.90
2018-03-31T22:24:25.098Z,10.88
2018-03-31T22:26:53.004Z,10.90
2018-03-31T22:29:20.932Z,10.86
2018-03-31T22:31:48.796Z,10.79
2018-03-31T22:34:16.664Z,10.66
2018-03-31T22:36:44.600Z,10.60
2018-03-31T22:39:12.452Z,10.67
2018-03-31T22:41:40.364Z,10.67
2018-03-31T22:44:08.262Z,10.67
2018-03-31T22:46:36.135Z,10.63
2018-03-31T22:49:03.994Z,10.59
2018-03-31T22:51:31.924Z,10.80
2018-03-31T22:53:59.806Z,10.87
2018-03-31T22:56:27.724Z,10.82
2018-03-31T22:58:55.623Z,10.79
2018-03-31T23:01:23.488Z,10.77
2018-03-31T23:03:51.725Z,10.75
2018-03-31T23:06:19.934Z,10.82
2018-03-31T23:08:48.092Z,10.83
2018-03-31T23:11:16.370Z,10.84
2018-03-31T23:13:45.477Z,10.79
2018-03-31T23:16:13.652Z,10.89
2018-03-31T23:18:41.884Z,10.92
2018-03-31T23:21:10.158Z,10.95
2018-03-31T23:23:38.327Z,10.93
2018-03-31T23:26:06.594Z,10.89
2018-03-31T23:28:36.624Z,10.85
2018-03-31T23:31:06.219Z,10.85
2018-03-31T23:33:34.594Z,10.89
2018-03-31T23:36:04.580Z,10.89
2018-03-31T23:38:32.596Z,10.93
2018-03-31T23:41:00.757Z,10.98
2018-03-31T23:43:28.758Z,11.05
2018-03-31T23:45:56.805Z,11.08
2018-03-31T23:48:25.692Z,11.14
2018-03-31T23:50:54.579Z,11.22
2018-03-31T23:53:22.476Z,11.27
2018-03-31T23:55:50.356Z,11.29
2018-03-31T23:58:19.200Z,11.24
